createdAt,value
2019-06-08T00:02:57.094Z,45.4
2019-06-08T00:07:57.333Z,45.4
2019-06-08T00:12:57.552Z,45.3
2019-06-08T00:17:59.471Z,45.2
2019-06-08T00:22:59.786Z,45.2
2019-06-08T00:28:00.169Z,45.1
2019-06-08T00:33:00.555Z,45.1
2019-06-08T00:38:00.758Z,45.1
2019-06-08T00:43:00.960Z,45
2019-06-08T00:48:01.188Z,45
2019-06-08T00:53:01.403Z,44.9
2019-06-08T00:58:01.610Z,44.9
2019-06-08T01:03:01.809Z,44.9
2019-06-08T01:08:02.063Z,44.8
2019-06-08T01:13:02.330Z,44.7
2019-06-08T01:18:04.281Z,44.7
2019-06-08T01:23:04.659Z,44.7
2019-06-08T01:28:04.840Z,44.6
2019-06-08T01:33:05.046Z,44.6
2019-06-08T01:38:05.258Z,44.6
2019-06-08T01:43:05.454Z,44.5
2019-06-08T01:48:19.130Z,44.5
2019-06-08T01:53:19.810Z,44.4
2019-06-08T01:58:20.271Z,44.4
2019-06-08T02:03:20.443Z,44.3
2019-06-08T02:08:20.616Z,44.3
2019-06-08T02:13:20.782Z,44.2
2019-06-08T02:18:35.313Z,44.2
2019-06-08T02:23:36.596Z,44.2
2019-06-08T02:28:36.793Z,44.1
2019-06-08T02:33:37.377Z,44.1
2019-06-08T02:38:37.649Z,44.1
2019-06-08T02:43:40.017Z,44
2019-06-08T02:49:00.023Z,43.9
2019-06-08T02:54:02.746Z,43.9
2019-06-08T02:59:02.910Z,43.9
2019-06-08T03:04:03.085Z,43.8
2019-06-08T03:09:03.295Z,43.7
2019-06-08T03:14:03.477Z,43.7
2019-06-08T03:19:19.836Z,43.7
2019-06-08T03:24:21.134Z,43.6
2019-06-08T03:29:21.339Z,43.6
2019-06-08T03:34:21.513Z,43.6
2019-06-08T03:39:21.677Z,43.5
2019-06-08T03:44:21.847Z,43.5
2019-06-08T03:49:40.229Z,43.4
2019-06-08T03:54:42.559Z,43.4
2019-06-08T03:59:43.791Z,43.4
2019-06-08T04:04:46.337Z,43.3
2019-06-08T04:09:46.651Z,43.3
2019-06-08T04:14:46.802Z,43.3
2019-06-08T04:20:06.235Z,43.2
2019-06-08T04:25:09.692Z,43.2
2019-06-08T04:30:09.854Z,43.1
2019-06-08T04:35:11.675Z,43.1
2019-06-08T04:40:13.505Z,43.1
2019-06-08T04:45:13.647Z,43
2019-06-08T04:50:22.327Z,43
2019-06-08T04:55:23.556Z,42.9
2019-06-08T05:00:23.734Z,42.9
2019-06-08T05:05:23.915Z,42.9
2019-06-08T05:10:24.068Z,42.8
2019-06-08T05:15:24.268Z,42.7
2019-06-08T05:20:37.484Z,42.7
2019-06-08T05:25:39.062Z,42.7
2019-06-08T05:30:39.388Z,42.6
2019-06-08T05:35:39.646Z,42.6
2019-06-08T05:40:41.549Z,42.6
2019-06-08T05:45:41.768Z,42.6
2019-06-08T05:50:56.704Z,42.5
2019-06-08T05:56:02.254Z,42.5
2019-06-08T06:01:04.059Z,42.4
2019-06-08T06:06:05.879Z,42.4
2019-06-08T06:11:07.688Z,42.4
2019-06-08T06:16:09.510Z,42.3
2019-06-08T06:21:11.324Z,42.2
2019-06-08T06:26:13.916Z,42.2
2019-06-08T06:31:15.754Z,42.2
2019-06-08T06:36:17.530Z,42.2
2019-06-08T06:41:19.448Z,42.1
2019-06-08T06:46:21.245Z,42.1
2019-06-08T06:51:26.400Z,42.1
2019-06-08T06:56:28.575Z,42
2019-06-08T07:01:30.365Z,41.9
2019-06-08T07:06:32.136Z,41.9
2019-06-08T07:11:34.128Z,41.9
2019-06-08T07:16:35.903Z,41.9
2019-06-08T07:21:41.492Z,41.8
2019-06-08T07:26:43.759Z,41.8
2019-06-08T07:31:46.675Z,41.7
2019-06-08T07:36:51.197Z,41.7
2019-06-08T07:41:54.261Z,41.7
2019-06-08T07:46:56.187Z,41.7
2019-06-08T07:52:08.063Z,41.6
2019-06-08T07:57:11.523Z,41.6
2019-06-08T08:02:13.270Z,41.6
2019-06-08T08:07:14.586Z,41.5
2019-06-08T08:12:15.399Z,41.5
2019-06-08T08:17:17.155Z,41.4
2019-06-08T08:22:25.205Z,41.4
2019-06-08T08:27:28.113Z,41.4
2019-06-08T08:32:29.980Z,41.4
2019-06-08T08:37:31.721Z,41.3
2019-06-08T08:42:33.460Z,41.2
2019-06-08T08:47:35.207Z,41.2
2019-06-08T08:52:39.951Z,41.2
2019-06-08T08:57:42.261Z,41.2
2019-06-08T09:02:43.993Z,41.2
2019-06-08T09:07:48.041Z,41.1
2019-06-08T09:12:52.101Z,41.1
2019-06-08T09:17:55.756Z,41.1
2019-06-08T09:23:06.368Z,41
2019-06-08T09:28:10.494Z,41
2019-06-08T09:33:12.269Z,40.9
2019-06-08T09:38:14.043Z,40.9
2019-06-08T09:43:18.680Z,40.9
2019-06-08T09:48:20.729Z,40.9
2019-06-08T09:53:28.114Z,40.8
2019-06-08T09:58:33.788Z,40.8
2019-06-08T10:03:35.604Z,40.8
2019-06-08T10:08:38.747Z,40.8
2019-06-08T10:13:43.196Z,40.7
2019-06-08T10:18:45.092Z,40.7
2019-06-08T10:23:48.357Z,40.6
2019-06-08T10:28:51.225Z,40.6
2019-06-08T10:33:53.210Z,40.6
2019-06-08T10:39:07.113Z,40.6
2019-06-08T10:44:14.214Z,40.5
2019-06-08T10:49:18.365Z,40.5
2019-06-08T10:54:20.460Z,40.4
2019-06-08T10:59:22.266Z,40.4
2019-06-08T11:04:24.035Z,40.4
2019-06-08T11:09:28.304Z,40.4
2019-06-08T11:14:30.310Z,40.3
2019-06-08T11:19:32.090Z,40.3
2019-06-08T11:24:33.897Z,40.2
2019-06-08T11:29:38.131Z,40.2
2019-06-08T11:34:40.103Z,40.2
2019-06-08T11:39:41.901Z,40.2
2019-06-08T11:44:43.670Z,40.2
2019-06-08T11:49:47.937Z,40.1
2019-06-08T11:54:52.635Z,40.1
2019-06-08T11:59:54.369Z,40.1
2019-06-08T12:04:57.233Z,40.1
2019-06-08T12:09:59.150Z,40
2019-06-08T12:15:00.910Z,40
2019-06-08T12:20:03.351Z,39.9
2019-06-08T12:25:05.914Z,39.9
2019-06-08T12:30:10.876Z,39.9
2019-06-08T12:35:18.294Z,39.9
2019-06-08T12:40:20.890Z,39.8
2019-06-08T12:45:22.754Z,39.8
2019-06-08T12:50:24.515Z,39.8
2019-06-08T12:55:26.269Z,39.7
2019-06-08T13:00:28.185Z,39.7
2019-06-08T13:05:30.027Z,39.7
2019-06-08T13:10:31.757Z,39.7
2019-06-08T13:15:33.465Z,39.7
2019-06-08T13:20:35.210Z,39.6
2019-06-08T13:25:40.846Z,39.6
2019-06-08T13:30:44.756Z,39.6
2019-06-08T13:35:47.966Z,39.5
2019-06-08T13:40:49.834Z,39.5
2019-06-08T13:45:51.684Z,39.5
2019-06-08T13:50:53.488Z,39.4
2019-06-08T13:55:56.567Z,39.4
2019-06-08T14:00:59.734Z,39.4
2019-06-08T14:06:01.785Z,39.4
2019-06-08T14:11:03.524Z,39.4
2019-06-08T14:16:05.292Z,39.3
2019-06-08T14:21:07.032Z,39.3
2019-06-08T14:26:08.734Z,39.2
2019-06-08T14:31:11.026Z,39.2
2019-06-08T14:36:12.835Z,39.2
2019-06-08T14:41:14.578Z,39.2
2019-06-08T14:46:18.456Z,39.2
2019-06-08T14:51:22.360Z,39.1
2019-06-08T14:56:24.901Z,39.1
2019-06-08T15:01:29.689Z,39.1
2019-06-08T15:06:34.163Z,39.1
2019-06-08T15:11:38.075Z,39.1
2019-06-08T15:16:41.750Z,39
2019-06-08T15:21:44.053Z,39
2019-06-08T15:26:48.565Z,39
2019-06-08T15:31:50.504Z,38.9
2019-06-08T15:36:52.214Z,38.9
2019-06-08T15:41:53.944Z,38.9
2019-06-08T15:46:55.683Z,38.9
2019-06-08T15:51:57.943Z,39.1
2019-06-08T15:56:59.814Z,40.6
2019-06-08T16:02:01.578Z,41.2
2019-06-08T16:07:03.617Z,41.8
2019-06-08T16:12:05.707Z,42.4
2019-06-08T16:17:05.870Z,42.8
2019-06-08T16:22:06.044Z,43.3
2019-06-08T16:27:06.255Z,43.7
2019-06-08T16:32:06.458Z,44.2
2019-06-08T16:37:06.938Z,44.7
2019-06-08T16:42:07.451Z,45.1
2019-06-08T16:47:07.720Z,45.6
2019-06-08T16:52:07.983Z,45.9
2019-06-08T16:57:10.425Z,46.2
2019-06-08T17:02:11.339Z,46.5
2019-06-08T17:07:11.630Z,46.7
2019-06-08T17:12:11.916Z,46.7
2019-06-08T17:17:12.235Z,46.9
2019-06-08T17:22:12.507Z,47
2019-06-08T17:27:26.213Z,47.1
2019-06-08T17:32:27.055Z,47.1
2019-06-08T17:37:27.476Z,47.1
2019-06-08T17:42:27.725Z,47.1
2019-06-08T17:47:28.058Z,47.2
2019-06-08T17:52:28.348Z,47.3
2019-06-08T17:57:41.335Z,47.2
2019-06-08T18:02:44.072Z,47.2
2019-06-08T18:07:46.250Z,47.2
2019-06-08T18:12:49.341Z,47.1
2019-06-08T18:17:49.778Z,47.1
2019-06-08T18:22:50.262Z,47.1
2019-06-08T18:28:04.922Z,47.1
2019-06-08T18:33:07.398Z,47
2019-06-08T18:38:07.741Z,47
2019-06-08T18:43:08.006Z,47
2019-06-08T18:48:08.292Z,46.9
2019-06-08T18:53:09.794Z,46.9
2019-06-08T18:58:20.560Z,46.9
2019-06-08T19:03:22.498Z,46.9
2019-06-08T19:08:22.787Z,46.8
2019-06-08T19:13:23.055Z,46.8
2019-06-08T19:18:23.363Z,46.7
2019-06-08T19:23:23.643Z,46.7
2019-06-08T19:28:35.531Z,46.7
2019-06-08T19:33:37.248Z,46.7
2019-06-08T19:38:39.990Z,46.7
2019-06-08T19:43:43.253Z,46.6
2019-06-08T19:48:45.297Z,46.6
2019-06-08T19:53:48.398Z,46.6
2019-06-08T19:59:00.590Z,46.5
2019-06-08T20:04:02.192Z,46.1
2019-06-08T20:09:02.470Z,45.8
2019-06-08T20:14:02.714Z,45.6
2019-06-08T20:19:02.966Z,45.6
2019-06-08T20:24:03.230Z,45.6
2019-06-08T20:29:13.009Z,45.5
2019-06-08T20:34:17.465Z,45.4
2019-06-08T20:39:18.127Z,45.4
2019-06-08T20:44:18.538Z,45.4
2019-06-08T20:49:18.787Z,45.4
2019-06-08T20:54:19.025Z,45.3
2019-06-08T20:59:29.805Z,45.2
2019-06-08T21:04:31.267Z,45.2
2019-06-08T21:09:31.503Z,45.2
2019-06-08T21:14:31.735Z,45.1
2019-06-08T21:19:31.952Z,45.1
2019-06-08T21:24:32.194Z,45.1
2019-06-08T21:29:46.832Z,45
2019-06-08T21:34:50.699Z,44.9
2019-06-08T21:39:55.240Z,44.9
2019-06-08T21:44:59.862Z,44.9
2019-06-08T21:50:01.466Z,44.8
2019-06-08T21:55:01.673Z,44.8
2019-06-08T22:00:19.171Z,44.7
2019-06-08T22:05:27.043Z,44.7
2019-06-08T22:10:27.250Z,44.6
2019-06-08T22:15:27.456Z,44.6
2019-06-08T22:20:27.653Z,44.6
2019-06-08T22:25:27.952Z,44.5
2019-06-08T22:30:36.186Z,44.4
2019-06-08T22:35:39.614Z,44.4
2019-06-08T22:40:39.835Z,44.4
2019-06-08T22:45:40.008Z,44.3
2019-06-08T22:50:40.230Z,44.2
2019-06-08T22:55:40.416Z,44.2
2019-06-08T23:00:51.999Z,44.2
2019-06-08T23:05:54.779Z,44.1
2019-06-08T23:10:58.472Z,44.1
2019-06-08T23:16:01.213Z,44.1
2019-06-08T23:21:03.999Z,44
2019-06-08T23:26:06.070Z,43.9
2019-06-08T23:31:20.949Z,43.9
2019-06-08T23:36:44.826Z,43.9
2019-06-08T23:41:48.253Z,43.8
2019-06-08T23:46:48.613Z,43.7
2019-06-08T23:51:48.796Z,43.7
2019-06-08T23:56:48.957Z,43.7
